Terminal Aerodrome Forecast
Issued by NWS

Home | Current Version | Previous Version | Text Only | Print | Product List | Glossary On
Versions: 1 2 3 4 5 6 7 8 9 10 11 12 13 14
000
FTUS41 KPBZ 032342
TAFLBE
TAF
KLBE 032342Z 0400/0424 14005KT P6SM -SHRA OVC035
     FM040100 07005KT 4SM -SHRA BR OVC025
      TEMPO 0401/0404 1 1/2SM RA
     FM040900 VRB05KT 6SM -SHRA BR OVC007
     FM041500 32008KT P6SM BKN015
     FM041700 33008KT P6SM SCT025=

USA.gov is the U.S. government's official web portal to all federal, state and local government web resources and services.